Accueil
METAR-TAF:

METAR-TAF

Aéroports :

Seldovia, Alaska, États-Unis

latitude: 59-27N, longitude: 151-42W, altitude: 9 m

Observation

Le bulletin a été fait il y a 25 minutes, à 05:53 UTC
Vent 8 kt de sud
Température 13°C
Humidité 58%
Pression 984 hPa
Visibilité: 9.7 km
Quelques nuages à une hauteur de 2700 ft
Ciel couvert à une hauteur de 3200 ft
pluie faible

METAR: PASO 080553Z AUTO 18008KT 6SM -RA FEW027 OVC032 13/05 A2907 RMK AO2 SLP845 P0003 60055 T01280050 10150 20094 53002 TSNO

Heure: 21:18 (06:18 UTC)


TAF: absent

Observations et prévisions météorologiques de plus de 4000 aéroports (messages METAR et TAF).

Les stations disponibles sont représentées par des disques jaunes et rouges sur la carte.

Passer la souris dessus pour voir le nom de la station.

Cliquer dessus pour voir les observations et prévisions météorologiques.

Pour changer de carte: cliquez sur les boutons verts avec une croix noire pour zoomer, sur le bouton vert avec un tiret pour effectuer un zoom arrière, ou sur les flèches vertes pour les cartes adjacentes.


METAR-TAF: